Time;durP1;ratioP1;P1;durP2;ratioP2;P2;SDS_P1;SDS_P2;PMS_P1;PMS_P2;Temp;Humidity;BMP_temperature;BMP_pressure;BME280_temperature;BME280_humidity;BME280_pressure;Samples;Min_cycle;Max_cycle;Signal;HPM_P1;HPM_P2
2022/12/31 00:01:29;;;;;;;3.25;1.05;;;20.10;59.90;;;;;;5052672;28;20119;-60
2022/12/31 00:03:55;;;;;;;2.50;0.80;;;20.00;59.80;;;;;;5053721;28;20063;-60
2022/12/31 00:06:25;;;;;;;2.58;0.90;;;20.00;59.80;;;;;;5053134;28;20508;-60
2022/12/31 00:08:51;;;;;;;2.35;0.77;;;20.00;59.80;;;;;;5052852;28;20048;-60
2022/12/31 00:11:17;;;;;;;3.22;0.90;;;20.00;59.90;;;;;;5053344;28;20048;-60
2022/12/31 00:13:44;;;;;;;3.72;0.90;;;20.00;60.40;;;;;;5052895;28;20060;-61
2022/12/31 00:16:21;;;;;;;3.30;0.90;;;20.00;59.90;;;;;;5053519;28;20049;-61
2022/12/31 00:18:49;;;;;;;2.42;0.80;;;20.00;59.90;;;;;;5053592;28;20041;-60
2022/12/31 00:21:15;;;;;;;1.80;0.70;;;19.90;59.80;;;;;;5047286;28;20048;-60
2022/12/31 00:23:40;;;;;;;2.80;1.02;;;19.90;59.80;;;;;;5053690;28;20047;-60
2022/12/31 00:26:10;;;;;;;2.28;1.00;;;19.90;59.90;;;;;;5053055;28;20040;-60
2022/12/31 00:28:36;;;;;;;2.03;0.85;;;19.90;59.90;;;;;;5052598;28;20045;-60
2022/12/31 00:31:05;;;;;;;3.22;1.00;;;19.90;59.90;;;;;;5052248;28;20400;-60
2022/12/31 00:33:31;;;;;;;1.60;0.70;;;19.90;59.90;;;;;;5053240;28;20045;-60
2022/12/31 00:36:07;;;;;;;2.42;0.80;;;19.90;59.90;;;;;;5052474;28;20052;-61
2022/12/31 00:38:32;;;;;;;3.40;1.00;;;19.90;59.90;;;;;;5052894;28;20041;-60
2022/12/31 00:40:58;;;;;;;3.15;0.93;;;19.90;59.90;;;;;;5053002;28;20045;-60
2022/12/31 00:43:23;;;;;;;2.78;0.95;;;19.90;59.90;;;;;;5051923;28;20071;-60
2022/12/31 00:45:49;;;;;;;2.90;0.93;;;19.90;59.90;;;;;;5052566;28;20066;-60
2022/12/31 00:48:14;;;;;;;2.25;0.80;;;19.90;59.90;;;;;;5052836;28;20047;-61
2022/12/31 00:50:40;;;;;;;2.88;1.02;;;19.80;59.90;;;;;;5051969;28;20080;-61
2022/12/31 00:53:05;;;;;;;3.50;0.90;;;19.80;59.90;;;;;;5052868;28;20044;-60
2022/12/31 00:55:31;;;;;;;3.85;1.13;;;19.80;59.90;;;;;;5052454;28;20094;-61
2022/12/31 00:57:56;;;;;;;3.17;0.80;;;19.80;59.90;;;;;;5051947;28;20073;-61
2022/12/31 01:00:22;;;;;;;2.17;0.80;;;19.80;60.00;;;;;;5052263;28;20135;-61
2022/12/31 01:02:48;;;;;;;2.15;0.90;;;19.80;60.00;;;;;;5052487;28;20072;-61
2022/12/31 01:05:13;;;;;;;3.10;1.00;;;19.80;60.00;;;;;;5050719;28;20389;-60
2022/12/31 01:07:39;;;;;;;0.88;0.60;;;19.80;60.00;;;;;;5052672;28;20457;-61
2022/12/31 01:10:05;;;;;;;1.92;0.77;;;19.80;60.00;;;;;;5051629;28;20045;-60
2022/12/31 01:12:31;;;;;;;2.20;0.90;;;19.80;60.00;;;;;;5051287;28;20052;-61
2022/12/31 01:14:56;;;;;;;2.60;0.80;;;19.70;60.00;;;;;;5052237;28;20049;-61
2022/12/31 01:17:22;;;;;;;2.67;1.00;;;19.70;60.00;;;;;;5050799;28;20055;-61
2022/12/31 01:19:47;;;;;;;4.18;1.13;;;19.70;60.00;;;;;;5052345;28;20246;-61
2022/12/31 01:22:13;;;;;;;3.58;1.00;;;19.70;60.00;;;;;;5052219;28;20118;-62
2022/12/31 01:24:38;;;;;;;0.90;0.50;;;19.70;60.00;;;;;;5051609;28;20424;-61
2022/12/31 01:27:04;;;;;;;3.05;0.95;;;19.70;60.00;;;;;;5052788;28;20060;-61
2022/12/31 01:29:29;;;;;;;2.35;0.85;;;19.70;60.00;;;;;;5051512;28;20131;-61
2022/12/31 01:31:55;;;;;;;2.40;0.80;;;19.70;60.00;;;;;;5051963;28;20075;-61
2022/12/31 01:34:20;;;;;;;2.13;0.95;;;19.70;60.00;;;;;;5052216;28;20362;-61
2022/12/31 01:36:46;;;;;;;2.63;0.60;;;19.70;60.00;;;;;;5052573;28;20041;-61
2022/12/31 01:39:12;;;;;;;1.75;0.63;;;19.70;60.00;;;;;;5051190;28;20080;-60
2022/12/31 01:41:39;;;;;;;2.53;0.77;;;19.60;60.00;;;;;;5052601;28;20065;-60
2022/12/31 01:44:11;;;;;;;1.88;0.85;;;19.70;60.10;;;;;;5052039;28;20055;-61
2022/12/31 01:46:45;;;;;;;2.17;0.70;;;19.60;60.00;;;;;;5050381;28;20045;-61
2022/12/31 01:49:23;;;;;;;2.00;0.70;;;19.60;60.00;;;;;;5048665;28;20386;-61
2022/12/31 01:51:53;;;;;;;2.42;0.70;;;19.60;60.00;;;;;;5052207;28;20370;-61
2022/12/31 01:54:18;;;;;;;2.22;0.82;;;19.60;60.00;;;;;;5051081;28;20500;-61
2022/12/31 01:56:44;;;;;;;2.97;0.70;;;19.60;60.00;;;;;;5052224;28;20056;-60
2022/12/31 01:59:10;;;;;;;3.25;0.82;;;19.60;60.00;;;;;;5049899;28;20052;-61
2022/12/31 02:01:36;;;;;;;2.03;0.77;;;19.60;60.10;;;;;;5051285;28;20124;-61
2022/12/31 02:04:10;;;;;;;3.20;0.65;;;19.60;60.00;;;;;;5052151;28;20049;-60
2022/12/31 02:07:01;;;;;;;1.58;0.60;;;19.60;60.10;;;;;;5050473;28;20045;-61
2022/12/31 02:09:27;;;;;;;3.17;0.85;;;19.60;60.00;;;;;;5049715;28;20080;-61
2022/12/31 02:11:52;;;;;;;1.88;0.80;;;19.50;60.10;;;;;;5051029;28;20080;-61
2022/12/31 02:14:24;;;;;;;1.52;0.68;;;19.60;60.20;;;;;;5050540;28;20130;-60
2022/12/31 02:16:58;;;;;;;1.73;0.60;;;19.60;60.10;;;;;;5050769;28;20565;-61
2022/12/31 02:19:45;;;;;;;1.75;0.73;;;19.50;60.10;;;;;;5051333;28;20041;-61
2022/12/31 02:22:38;;;;;;;1.92;0.73;;;19.50;60.10;;;;;;5049755;28;20037;-61
2022/12/31 02:25:22;;;;;;;1.67;0.60;;;19.50;60.80;;;;;;5050600;28;20044;-61
2022/12/31 02:28:16;;;;;;;2.55;0.70;;;19.50;60.10;;;;;;5051045;28;20477;-61
2022/12/31 02:30:41;;;;;;;3.08;0.82;;;19.50;60.10;;;;;;5055844;28;20049;-61
2022/12/31 02:33:11;;;;;;;2.63;0.70;;;19.50;60.10;;;;;;5054393;28;20095;-61
2022/12/31 02:35:45;;;;;;;1.90;0.60;;;19.50;60.10;;;;;;5053761;28;20044;-61
2022/12/31 02:38:34;;;;;;;2.05;0.75;;;19.50;60.10;;;;;;5053412;28;20041;-61
2022/12/31 02:41:00;;;;;;;1.65;0.60;;;19.50;60.10;;;;;;5054058;28;20057;-61
2022/12/31 02:43:25;;;;;;;1.33;0.70;;;19.40;60.10;;;;;;5054456;28;20048;-61
2022/12/31 02:46:13;;;;;;;2.72;0.80;;;19.50;60.20;;;;;;5055367;28;20037;-61
2022/12/31 02:48:44;;;;;;;1.80;0.63;;;19.50;60.20;;;;;;5053451;28;20124;-61
2022/12/31 02:51:44;;;;;;;1.17;0.50;;;19.40;60.20;;;;;;5053612;28;20124;-61
2022/12/31 02:54:11;;;;;;;0.82;0.50;;;19.40;60.00;;;;;;5039633;28;20103;-61
2022/12/31 02:56:51;;;;;;;1.95;0.60;;;19.40;60.10;;;;;;5052974;28;20436;-61
2022/12/31 03:02:14;;;;;;;2.65;0.65;;;19.40;60.10;;;;;;5052946;28;20124;-61
2022/12/31 03:04:54;;;;;;;1.77;0.60;;;19.40;60.10;;;;;;5052728;28;20132;-61
2022/12/31 03:07:27;;;;;;;2.13;0.70;;;19.40;60.20;;;;;;5053418;28;20090;-61
2022/12/31 03:09:52;;;;;;;1.55;0.70;;;19.40;60.20;;;;;;5047054;28;20500;-61
2022/12/31 03:15:06;;;;;;;1.38;0.77;;;19.40;60.20;;;;;;5053603;28;20493;-61
2022/12/31 03:17:34;;;;;;;0.93;0.43;;;19.40;60.20;;;;;;5053644;28;20045;-61
2022/12/31 03:22:44;;;;;;;3.22;0.77;;;19.40;60.20;;;;;;5054862;28;20085;-60
2022/12/31 03:27:56;;;;;;;1.75;0.60;;;19.40;60.20;;;;;;5054721;28;20049;-61
2022/12/31 03:30:22;;;;;;;1.77;0.60;;;19.30;60.20;;;;;;5053603;28;20045;-61
2022/12/31 03:32:48;;;;;;;1.10;0.43;;;19.30;60.10;;;;;;5054012;28;20037;-61
2022/12/31 03:35:14;;;;;;;0.93;0.47;;;19.30;60.20;;;;;;5053955;28;20059;-60
2022/12/31 03:37:40;;;;;;;0.85;0.50;;;19.30;60.10;;;;;;5053972;28;20041;-61
2022/12/31 03:40:07;;;;;;;2.75;0.80;;;19.30;60.10;;;;;;5053539;28;20078;-61
2022/12/31 03:42:32;;;;;;;1.42;0.60;;;19.40;60.20;;;;;;5053948;28;20049;-61
2022/12/31 03:44:58;;;;;;;1.27;0.50;;;19.30;60.10;;;;;;5052864;28;20151;-60
2022/12/31 03:47:23;;;;;;;0.63;0.40;;;19.30;60.10;;;;;;5054210;28;20121;-61
2022/12/31 03:49:49;;;;;;;0.98;0.40;;;19.30;60.10;;;;;;5054075;28;20167;-61
2022/12/31 03:52:14;;;;;;;1.27;0.43;;;19.30;60.20;;;;;;5052968;28;20063;-61
2022/12/31 03:54:40;;;;;;;1.33;0.60;;;19.30;60.20;;;;;;5054102;28;20052;-61
2022/12/31 03:57:05;;;;;;;1.35;0.40;;;19.40;60.20;;;;;;5054337;28;20416;-60
2022/12/31 03:59:31;;;;;;;0.82;0.40;;;19.40;60.20;;;;;;5052771;28;20080;-61
2022/12/31 04:01:57;;;;;;;0.75;0.30;;;19.30;60.20;;;;;;5054042;28;20060;-60
2022/12/31 04:04:22;;;;;;;1.10;0.50;;;19.40;60.20;;;;;;5053505;28;20124;-60
2022/12/31 04:06:48;;;;;;;0.68;0.38;;;19.40;60.20;;;;;;5053101;28;20045;-60
2022/12/31 04:09:13;;;;;;;1.15;0.55;;;19.40;60.20;;;;;;5053459;28;20047;-60
2022/12/31 04:11:39;;;;;;;1.08;0.50;;;19.40;60.20;;;;;;5053492;28;20132;-60
2022/12/31 04:14:04;;;;;;;1.38;0.40;;;19.40;60.20;;;;;;5052749;28;20409;-60
2022/12/31 04:16:31;;;;;;;1.50;0.50;;;19.40;60.20;;;;;;5047857;28;20053;-60
2022/12/31 04:18:57;;;;;;;2.25;0.60;;;19.40;60.20;;;;;;5053720;28;20489;-60
2022/12/31 04:21:22;;;;;;;0.63;0.43;;;19.40;60.20;;;;;;5052463;28;20079;-61
2022/12/31 04:23:48;;;;;;;1.00;0.32;;;19.40;60.20;;;;;;5053609;28;20083;-60
2022/12/31 04:26:13;;;;;;;1.95;0.50;;;19.40;60.20;;;;;;5052882;28;20071;-60
2022/12/31 04:28:39;;;;;;;2.15;0.45;;;19.50;60.30;;;;;;5052780;28;20052;-60
2022/12/31 04:31:04;;;;;;;1.48;0.50;;;19.50;60.20;;;;;;5053479;28;20033;-60
2022/12/31 04:33:30;;;;;;;0.90;0.32;;;19.50;60.30;;;;;;5053191;28;20037;-60
2022/12/31 04:36:06;;;;;;;0.82;0.40;;;19.50;60.20;;;;;;5052820;28;20039;-61
2022/12/31 04:38:31;;;;;;;0.68;0.38;;;19.50;60.20;;;;;;5052830;28;20593;-60
2022/12/31 04:43:41;;;;;;;0.45;0.38;;;19.50;60.10;;;;;;5053063;28;20057;-60
2022/12/31 04:46:07;;;;;;;0.82;0.40;;;19.50;60.20;;;;;;5053242;28;20041;-60
2022/12/31 04:48:33;;;;;;;1.65;0.40;;;19.50;60.20;;;;;;5051508;28;20089;-60
2022/12/31 04:50:58;;;;;;;1.08;0.43;;;19.60;60.20;;;;;;5053170;28;20049;-60
2022/12/31 04:53:24;;;;;;;1.55;0.40;;;19.60;60.20;;;;;;5051925;28;20048;-60
2022/12/31 04:55:50;;;;;;;1.00;0.30;;;19.60;60.20;;;;;;5050994;28;20037;-61
2022/12/31 04:58:16;;;;;;;0.70;0.35;;;19.60;60.20;;;;;;5052612;28;20492;-60
2022/12/31 05:00:43;;;;;;;0.70;0.30;;;19.60;60.80;;;;;;5052939;28;20163;-61
2022/12/31 05:03:09;;;;;;;0.90;0.40;;;19.60;60.10;;;;;;5051203;28;20041;-60
2022/12/31 05:05:37;;;;;;;0.93;0.30;;;19.70;60.10;;;;;;5052037;28;20059;-61
2022/12/31 05:08:03;;;;;;;1.17;0.30;;;19.70;60.20;;;;;;5052435;28;20045;-61
2022/12/31 05:10:29;;;;;;;0.70;0.35;;;19.70;60.20;;;;;;5051358;28;20507;-60
2022/12/31 05:12:54;;;;;;;0.60;0.30;;;19.70;60.10;;;;;;5052707;28;20486;-60
2022/12/31 05:15:20;;;;;;;0.60;0.30;;;19.70;60.10;;;;;;5051456;28;20076;-60
2022/12/31 05:17:45;;;;;;;0.55;0.30;;;19.70;60.10;;;;;;5051806;28;20053;-60
2022/12/31 05:20:11;;;;;;;1.15;0.50;;;19.70;60.10;;;;;;5052262;28;20041;-60
2022/12/31 05:22:36;;;;;;;0.77;0.25;;;19.70;60.10;;;;;;5052738;28;20078;-61
2022/12/31 05:25:02;;;;;;;0.80;0.30;;;19.80;60.10;;;;;;5050666;28;20120;-60
2022/12/31 05:27:29;;;;;;;1.65;0.40;;;19.80;60.10;;;;;;5052393;28;20550;-60
2022/12/31 05:29:55;;;;;;;1.03;0.50;;;19.80;60.10;;;;;;5052567;28;20044;-60
2022/12/31 05:32:20;;;;;;;0.90;0.30;;;19.80;60.10;;;;;;5051497;28;20304;-61
2022/12/31 05:34:46;;;;;;;2.13;0.40;;;19.80;60.10;;;;;;5052203;28;20107;-61
2022/12/31 05:37:12;;;;;;;0.50;0.30;;;19.80;60.10;;;;;;5051420;28;20091;-61
2022/12/31 05:39:37;;;;;;;0.73;0.30;;;19.80;60.10;;;;;;5052281;28;20047;-61
2022/12/31 05:42:03;;;;;;;0.90;0.30;;;19.80;60.10;;;;;;5052451;28;20079;-61
2022/12/31 05:44:28;;;;;;;0.70;0.30;;;19.80;60.10;;;;;;5051330;28;20128;-61
2022/12/31 05:46:54;;;;;;;1.20;0.40;;;19.80;60.10;;;;;;5052597;28;20041;-61
2022/12/31 05:49:19;;;;;;;0.50;0.30;;;19.90;60.10;;;;;;5047399;28;20484;-61
2022/12/31 05:51:45;;;;;;;0.60;0.28;;;19.90;60.10;;;;;;5051244;28;20058;-61
2022/12/31 05:54:11;;;;;;;1.17;0.30;;;19.90;60.10;;;;;;5051750;28;20087;-61
2022/12/31 05:56:36;;;;;;;0.85;0.30;;;19.90;60.10;;;;;;5052224;28;20111;-60
2022/12/31 05:59:02;;;;;;;1.00;0.20;;;19.90;60.00;;;;;;5051539;28;20485;-61
2022/12/31 06:01:27;;;;;;;0.60;0.30;;;19.90;60.10;;;;;;5051644;28;20040;-60
2022/12/31 06:03:53;;;;;;;0.30;0.25;;;19.90;60.10;;;;;;5053068;28;20048;-60
2022/12/31 06:06:18;;;;;;;0.82;0.30;;;19.90;60.00;;;;;;5055024;28;20044;-61
2022/12/31 06:08:47;;;;;;;0.95;0.30;;;19.90;60.10;;;;;;5056208;28;20041;-61
2022/12/31 06:11:13;;;;;;;1.40;0.40;;;19.90;60.00;;;;;;5054658;28;20111;-61
2022/12/31 06:13:38;;;;;;;0.77;0.28;;;19.90;60.00;;;;;;5055330;28;20131;-61
2022/12/31 06:16:06;;;;;;;0.75;0.30;;;19.90;60.00;;;;;;5055960;28;20081;-61
2022/12/31 06:18:31;;;;;;;0.40;0.20;;;20.00;60.10;;;;;;5055388;28;20041;-61
2022/12/31 06:20:57;;;;;;;0.80;0.30;;;19.90;60.00;;;;;;5055359;28;20056;-61
2022/12/31 06:23:23;;;;;;;1.42;0.30;;;19.90;60.00;;;;;;5055613;28;20049;-61
2022/12/31 06:25:48;;;;;;;0.50;0.30;;;20.00;60.10;;;;;;5055368;28;20040;-61
2022/12/31 06:28:14;;;;;;;1.05;0.30;;;20.00;60.00;;;;;;5054487;28;20041;-61
2022/12/31 06:30:39;;;;;;;1.10;0.30;;;19.90;60.00;;;;;;5055582;28;20087;-61
2022/12/31 06:33:05;;;;;;;0.90;0.30;;;20.00;60.70;;;;;;5055704;28;20049;-61
2022/12/31 06:35:30;;;;;;;0.63;0.30;;;20.00;60.70;;;;;;5054529;28;20032;-61
2022/12/31 06:37:56;;;;;;;2.35;0.30;;;20.00;60.00;;;;;;5055555;28;20073;-61
2022/12/31 06:40:22;;;;;;;0.73;0.20;;;20.00;60.10;;;;;;5055168;28;20091;-61
2022/12/31 06:42:47;;;;;;;0.70;0.30;;;20.00;60.00;;;;;;5054822;28;20044;-61
2022/12/31 06:45:13;;;;;;;0.47;0.28;;;20.00;60.00;;;;;;5054975;28;20045;-61
2022/12/31 06:47:38;;;;;;;0.30;0.20;;;20.00;60.00;;;;;;5054396;28;20049;-61
2022/12/31 06:50:05;;;;;;;0.43;0.20;;;20.00;60.00;;;;;;5055362;28;20033;-61
2022/12/31 06:52:31;;;;;;;0.50;0.20;;;20.00;60.00;;;;;;5054584;28;20051;-61
2022/12/31 06:54:57;;;;;;;0.30;0.25;;;20.00;60.00;;;;;;5054280;28;20498;-61
2022/12/31 06:57:23;;;;;;;0.22;0.20;;;20.00;60.00;;;;;;5055085;28;20045;-61
2022/12/31 06:59:49;;;;;;;0.75;0.35;;;20.00;60.00;;;;;;5053454;28;20133;-61
2022/12/31 07:02:23;;;;;;;0.57;0.20;;;20.00;60.00;;;;;;5053868;28;20481;-61
2022/12/31 07:05:06;;;;;;;0.65;0.40;;;20.00;60.00;;;;;;5053668;28;20115;-61
2022/12/31 07:07:34;;;;;;;0.82;0.20;;;20.10;60.00;;;;;;5053492;28;20512;-61
2022/12/31 07:10:24;;;;;;;0.40;0.20;;;20.00;60.00;;;;;;5049721;28;20053;-61
2022/12/31 07:13:20;;;;;;;0.68;0.15;;;20.10;60.00;;;;;;5053827;28;20080;-61
2022/12/31 07:16:01;;;;;;;0.28;0.20;;;20.10;60.00;;;;;;5051435;28;20087;-61
2022/12/31 07:18:50;;;;;;;0.75;0.30;;;20.10;60.00;;;;;;5053090;28;20447;-61
2022/12/31 07:21:17;;;;;;;0.43;0.22;;;20.10;60.10;;;;;;5054617;28;20049;-61
2022/12/31 07:23:43;;;;;;;0.20;0.15;;;20.00;60.00;;;;;;5052405;28;20570;-61
2022/12/31 07:26:42;;;;;;;0.68;0.28;;;20.10;60.00;;;;;;5054581;28;20112;-61
2022/12/31 07:29:39;;;;;;;0.22;0.20;;;20.10;60.00;;;;;;5053455;28;20386;-60
2022/12/31 07:32:13;;;;;;;0.45;0.20;;;20.10;60.00;;;;;;5050619;28;20053;-63
2022/12/31 07:35:01;;;;;;;0.68;0.20;;;20.10;60.00;;;;;;5053220;28;20119;-61
2022/12/31 07:37:36;;;;;;;1.33;0.20;;;20.10;60.00;;;;;;5052596;28;20045;-60
2022/12/31 07:40:23;;;;;;;1.48;0.20;;;20.10;60.00;;;;;;5054467;28;20041;-60
2022/12/31 07:43:01;;;;;;;2.35;0.28;;;20.10;60.10;;;;;;5053423;28;20040;-61
2022/12/31 07:45:29;;;;;;;2.17;0.25;;;20.10;60.00;;;;;;5053619;28;20473;-61
2022/12/31 07:47:55;;;;;;;2.35;0.35;;;20.20;60.00;;;;;;5052740;28;20044;-61
2022/12/31 07:50:20;;;;;;;1.35;0.47;;;20.20;60.10;;;;;;5053912;28;20041;-61
2022/12/31 07:52:46;;;;;;;2.67;0.43;;;20.20;60.20;;;;;;5053185;28;20090;-59
2022/12/31 07:55:12;;;;;;;4.43;0.50;;;20.30;60.20;;;;;;5053600;28;20041;-59
2022/12/31 07:57:41;;;;;;;2.33;0.40;;;20.30;60.30;;;;;;5054028;28;20041;-58
2022/12/31 08:00:11;;;;;;;1.60;0.50;;;20.30;60.20;;;;;;5052231;28;20037;-58
2022/12/31 08:02:43;;;;;;;1.77;0.50;;;20.30;60.30;;;;;;5052015;28;20059;-58
2022/12/31 08:05:44;;;;;;;1.85;0.60;;;20.40;60.30;;;;;;5051717;28;20044;-58
2022/12/31 08:08:22;;;;;;;1.45;0.50;;;20.40;60.40;;;;;;5052086;28;20092;-58
2022/12/31 08:11:06;;;;;;;2.35;0.93;;;20.40;60.50;;;;;;5052584;28;20041;-57
2022/12/31 08:13:31;;;;;;;0.95;0.40;;;20.40;60.60;;;;;;5051500;28;20040;-58
2022/12/31 08:15:58;;;;;;;0.90;0.50;;;20.50;60.60;;;;;;5053344;28;20095;-58
2022/12/31 08:18:24;;;;;;;2.90;0.50;;;20.50;60.70;;;;;;5053034;28;20488;-57
2022/12/31 08:21:07;;;;;;;1.00;0.40;;;20.50;60.70;;;;;;5052996;28;20523;-57
2022/12/31 08:23:53;;;;;;;4.90;0.60;;;20.60;61.50;;;;;;5053334;28;20044;-58
2022/12/31 08:26:44;;;;;;;0.65;0.43;;;20.60;60.90;;;;;;5050835;28;20563;-57
2022/12/31 08:29:37;;;;;;;0.32;0.30;;;20.60;60.90;;;;;;5053228;28;20048;-57
2022/12/31 08:32:20;;;;;;;2.47;0.57;;;20.60;60.90;;;;;;5052329;28;20558;-57
2022/12/31 08:35:07;;;;;;;1.52;0.30;;;20.60;60.90;;;;;;5052546;28;20453;-58
2022/12/31 08:37:36;;;;;;;2.60;0.50;;;20.60;61.00;;;;;;5051949;28;20047;-57
2022/12/31 08:40:04;;;;;;;3.13;0.40;;;20.60;61.00;;;;;;5051669;28;20036;-58
2022/12/31 08:42:36;;;;;;;2.13;0.32;;;20.70;61.00;;;;;;5052715;28;20120;-57
2022/12/31 08:45:17;;;;;;;1.88;0.30;;;20.70;61.00;;;;;;5046849;28;20102;-57
2022/12/31 08:48:27;;;;;;;2.05;0.30;;;20.70;61.10;;;;;;5051422;28;20052;-58
2022/12/31 08:50:53;;;;;;;1.00;0.32;;;20.70;61.10;;;;;;5011011;28;20054;-58
2022/12/31 08:53:19;;;;;;;1.75;0.45;;;20.70;61.10;;;;;;5010654;28;20077;-59
2022/12/31 08:55:45;;;;;;;1.85;0.43;;;20.70;61.10;;;;;;5031414;28;20084;-58
2022/12/31 08:58:34;;;;;;;2.42;0.40;;;20.70;61.00;;;;;;5052379;28;20033;-58
2022/12/31 09:01:00;;;;;;;2.55;0.40;;;20.70;61.10;;;;;;5052339;28;20049;-59
2022/12/31 09:03:47;;;;;;;0.60;0.30;;;20.70;61.10;;;;;;5050353;28;20118;-60
2022/12/31 09:06:26;;;;;;;0.47;0.30;;;20.70;61.20;;;;;;5052638;28;20048;-60
2022/12/31 09:08:57;;;;;;;1.08;0.30;;;20.70;61.20;;;;;;5051022;28;20051;-59
2022/12/31 09:11:38;;;;;;;0.80;0.30;;;20.70;61.30;;;;;;5051274;28;20067;-60
2022/12/31 09:14:41;;;;;;;1.23;0.38;;;20.70;61.30;;;;;;5051065;28;20061;-59
2022/12/31 09:17:39;;;;;;;1.77;0.50;;;20.70;61.30;;;;;;5051910;28;20057;-59
2022/12/31 09:20:04;;;;;;;;;;;20.70;61.30;;;;;;5043435;28;20056;-59
2022/12/31 09:22:30;;;;;;;0.93;0.30;;;20.70;61.30;;;;;;5051527;28;19925;-59
2022/12/31 09:24:56;;;;;;;1.48;0.43;;;20.70;61.30;;;;;;5052484;28;20044;-59
2022/12/31 09:27:34;;;;;;;0.70;0.30;;;20.70;61.70;;;;;;5052412;28;20076;-59
2022/12/31 09:30:06;;;;;;;1.15;0.20;;;20.70;61.30;;;;;;5034159;28;20378;-59
2022/12/31 09:32:35;;;;;;;0.60;0.30;;;20.70;61.30;;;;;;5052093;28;20052;-60
2022/12/31 09:35:02;;;;;;;1.42;0.40;;;20.70;61.30;;;;;;5046753;28;20554;-60
2022/12/31 09:37:47;;;;;;;1.77;0.30;;;20.70;61.20;;;;;;5030709;28;20042;-59
2022/12/31 09:40:27;;;;;;;0.50;0.30;;;20.70;61.30;;;;;;5030857;28;20308;-59
2022/12/31 09:43:05;;;;;;;1.15;0.20;;;20.70;61.40;;;;;;5031629;28;20596;-60
2022/12/31 09:45:51;;;;;;;0.53;0.27;;;20.60;61.30;;;;;;5035207;28;20045;-59
2022/12/31 09:48:54;;;;;;;0.68;0.30;;;20.70;61.30;;;;;;5031709;28;20124;-60
2022/12/31 09:51:31;;;;;;;1.90;0.40;;;20.70;61.30;;;;;;5030737;28;20128;-59
2022/12/31 09:54:02;;;;;;;1.90;0.30;;;20.70;61.30;;;;;;5049591;28;20047;-60
2022/12/31 09:56:30;;;;;;;2.83;0.30;;;20.60;61.30;;;;;;5050832;28;20045;-59
2022/12/31 09:59:08;;;;;;;2.85;0.40;;;20.60;61.30;;;;;;5049751;28;20052;-61
2022/12/31 10:01:43;;;;;;;4.32;0.40;;;20.60;61.30;;;;;;5052391;28;20056;-59
2022/12/31 10:04:21;;;;;;;1.35;0.30;;;20.70;61.30;;;;;;5051569;28;20080;-59
2022/12/31 10:07:11;;;;;;;2.75;0.40;;;20.60;61.30;;;;;;5045817;28;20049;-59
2022/12/31 10:09:55;;;;;;;2.28;0.40;;;20.60;61.40;;;;;;5051245;28;20087;-59
2022/12/31 10:12:41;;;;;;;4.28;0.50;;;20.60;61.60;;;;;;5050941;28;20081;-59
2022/12/31 10:15:21;;;;;;;3.22;0.30;;;20.60;61.60;;;;;;5050639;28;20064;-59
2022/12/31 10:18:03;;;;;;;1.15;0.35;;;20.60;61.80;;;;;;5054840;28;20404;-59
2022/12/31 10:20:35;;;;;;;2.00;0.43;;;20.60;61.80;;;;;;5049814;28;20071;-59
2022/12/31 10:23:13;;;;;;;5.18;0.40;;;20.60;61.70;;;;;;5049528;28;20029;-59
2022/12/31 10:26:01;;;;;;;2.88;0.40;;;20.60;61.60;;;;;;5048106;28;20033;-58
2022/12/31 10:28:30;;;;;;;0.68;0.30;;;20.60;61.60;;;;;;5034148;28;20049;-58
2022/12/31 10:31:13;;;;;;;1.95;0.43;;;20.60;61.60;;;;;;5052124;28;20055;-58
2022/12/31 10:33:43;;;;;;;0.30;0.25;;;20.60;61.60;;;;;;5052712;28;20040;-58
2022/12/31 10:36:38;;;;;;;2.67;0.40;;;20.60;61.60;;;;;;5054172;28;20158;-59
2022/12/31 10:39:21;;;;;;;2.30;0.45;;;20.60;61.50;;;;;;5042594;28;20179;-58
2022/12/31 10:42:28;;;;;;;1.60;0.50;;;20.60;61.60;;;;;;5051284;28;20048;-59
2022/12/31 10:45:21;;;;;;;4.20;0.47;;;20.50;61.70;;;;;;5037381;28;20080;-59
2022/12/31 10:47:57;;;;;;;3.60;0.50;;;20.60;61.90;;;;;;5034550;28;20049;-58
2022/12/31 10:50:34;;;;;;;3.33;0.40;;;20.60;61.90;;;;;;5050387;28;20045;-58
2022/12/31 10:53:13;;;;;;;2.33;0.57;;;20.60;62.00;;;;;;5054880;28;20049;-58
2022/12/31 10:55:54;;;;;;;1.55;0.50;;;20.60;62.00;;;;;;5052812;28;20116;-58
2022/12/31 10:58:52;;;;;;;3.15;0.60;;;20.60;62.00;;;;;;5054013;28;20045;-58
2022/12/31 11:01:25;;;;;;;2.78;0.45;;;20.60;62.10;;;;;;5052416;28;20128;-58
2022/12/31 11:04:28;;;;;;;2.30;0.57;;;20.60;62.20;;;;;;5053531;28;20052;-58
2022/12/31 11:07:08;;;;;;;1.23;0.50;;;20.60;62.30;;;;;;5054634;28;20053;-60
2022/12/31 11:10:10;;;;;;;2.65;0.50;;;20.60;62.30;;;;;;5054283;28;20052;-59
2022/12/31 11:12:39;;;;;;;3.50;0.50;;;20.60;62.20;;;;;;5053068;28;20053;-58
2022/12/31 11:15:20;;;;;;;2.38;0.50;;;20.60;62.40;;;;;;5052777;28;20059;-59
2022/12/31 11:17:52;;;;;;;1.85;0.50;;;20.60;62.40;;;;;;5054153;28;20098;-59
2022/12/31 11:20:39;;;;;;;1.10;0.50;;;20.60;62.50;;;;;;5047653;28;20480;-58
2022/12/31 11:23:23;;;;;;;1.88;0.50;;;20.60;62.50;;;;;;5051184;28;20041;-59
2022/12/31 11:26:05;;;;;;;4.90;0.60;;;20.60;62.40;;;;;;5054105;28;20073;-59
2022/12/31 11:28:38;;;;;;;2.03;0.47;;;20.60;62.50;;;;;;5053837;28;20060;-59
2022/12/31 11:31:11;;;;;;;3.60;0.55;;;20.60;62.50;;;;;;5053165;28;20443;-60
2022/12/31 11:34:00;;;;;;;3.80;0.55;;;20.60;62.50;;;;;;5051501;28;20041;-59
2022/12/31 11:36:57;;;;;;;3.20;0.60;;;20.60;62.50;;;;;;5051792;28;20041;-59
2022/12/31 11:39:33;;;;;;;2.28;0.50;;;20.60;62.50;;;;;;5052633;28;20040;-59
2022/12/31 11:42:03;;;;;;;1.52;0.40;;;20.50;62.50;;;;;;5052642;28;20068;-59
2022/12/31 11:44:35;;;;;;;1.88;0.50;;;20.60;62.50;;;;;;5051620;28;20849;-59
2022/12/31 11:47:09;;;;;;;1.65;0.50;;;20.50;62.50;;;;;;5052934;28;20045;-59
2022/12/31 11:49:53;;;;;;;2.58;0.70;;;20.60;62.60;;;;;;5053964;28;20048;-59
2022/12/31 11:52:30;;;;;;;1.40;0.70;;;20.50;62.50;;;;;;5052652;28;20400;-59
2022/12/31 11:55:04;;;;;;;1.40;0.52;;;20.50;63.10;;;;;;5053705;28;20044;-59
2022/12/31 11:57:32;;;;;;;3.25;0.80;;;20.50;62.60;;;;;;5051420;28;20552;-59
2022/12/31 11:59:59;;;;;;;;;;;20.50;62.60;;;;;;5054083;28;20045;-59
2022/12/31 12:02:31;;;;;;;3.65;0.60;;;20.50;62.50;;;;;;5051622;28;19924;-60
2022/12/31 12:04:58;;;;;;;1.55;0.47;;;20.50;62.60;;;;;;5019347;28;20052;-60
2022/12/31 12:07:24;;;;;;;1.63;0.60;;;20.50;62.50;;;;;;5035901;28;20160;-59
2022/12/31 12:09:51;;;;;;;2.00;0.70;;;20.50;62.60;;;;;;5053913;28;20052;-60
2022/12/31 12:12:17;;;;;;;2.38;0.60;;;20.40;62.70;;;;;;5051306;28;20041;-60
2022/12/31 12:14:43;;;;;;;1.90;0.85;;;20.40;62.70;;;;;;5053028;28;20057;-60
2022/12/31 12:17:14;;;;;;;3.35;0.85;;;20.40;62.90;;;;;;5053316;28;20044;-60
2022/12/31 12:19:51;;;;;;;1.75;0.70;;;20.40;63.00;;;;;;5035686;28;20107;-60
2022/12/31 12:22:22;;;;;;;1.67;0.60;;;20.30;63.10;;;;;;5052089;28;20051;-60
2022/12/31 12:24:55;;;;;;;3.60;0.70;;;20.30;63.20;;;;;;5052304;28;20052;-60
2022/12/31 12:27:32;;;;;;;3.33;0.75;;;20.30;63.10;;;;;;5051892;28;20547;-60
2022/12/31 12:30:06;;;;;;;2.17;0.80;;;20.20;63.10;;;;;;5052758;28;20530;-60
2022/12/31 12:32:32;;;;;;;2.35;0.80;;;20.30;63.10;;;;;;5052289;28;20056;-60
2022/12/31 12:34:58;;;;;;;3.70;0.90;;;20.20;63.10;;;;;;5053243;28;20124;-60
2022/12/31 12:37:31;;;;;;;2.85;0.90;;;20.20;63.10;;;;;;5052855;28;20052;-61
2022/12/31 12:40:02;;;;;;;7.13;0.98;;;20.20;63.20;;;;;;5052357;28;20059;-59
2022/12/31 12:42:28;;;;;;;5.05;0.98;;;20.20;63.30;;;;;;5052444;28;20385;-60
2022/12/31 12:45:00;;;;;;;5.63;1.58;;;20.20;63.30;;;;;;5047486;28;20049;-60
2022/12/31 12:47:26;;;;;;;4.15;1.30;;;20.20;63.30;;;;;;5051984;28;20535;-61
2022/12/31 12:49:53;;;;;;;4.78;1.27;;;20.20;63.30;;;;;;5051459;28;20048;-62
2022/12/31 12:52:59;;;;;;;5.38;1.40;;;20.10;63.30;;;;;;5051236;28;20037;-61
2022/12/31 12:55:37;;;;;;;5.72;1.42;;;20.20;63.50;;;;;;5050577;28;20049;-61
2022/12/31 12:58:05;;;;;;;5.07;1.70;;;20.20;63.60;;;;;;5052760;28;20037;-60
2022/12/31 13:00:38;;;;;;;5.13;1.33;;;20.20;63.70;;;;;;5051059;28;20397;-60
2022/12/31 13:03:28;;;;;;;5.35;1.48;;;20.20;63.70;;;;;;5051129;28;20049;-61
2022/12/31 13:06:03;;;;;;;5.40;1.33;;;20.20;63.90;;;;;;5052149;28;20496;-61
2022/12/31 13:09:10;;;;;;;6.13;1.50;;;20.20;64.50;;;;;;5051466;28;20049;-62
2022/12/31 13:11:48;;;;;;;5.23;1.70;;;20.20;63.80;;;;;;5051644;28;20436;-61
2022/12/31 13:14:50;;;;;;;4.28;1.30;;;20.20;63.90;;;;;;5050221;28;20049;-61
2022/12/31 13:17:43;;;;;;;4.45;1.60;;;20.20;64.50;;;;;;5055295;28;20147;-61
2022/12/31 13:20:09;;;;;;;5.70;1.60;;;20.20;64.00;;;;;;5053576;28;20500;-61
2022/12/31 13:22:47;;;;;;;5.38;1.67;;;20.20;64.00;;;;;;5051208;28;20071;-60
2022/12/31 13:25:27;;;;;;;5.65;1.60;;;20.30;64.10;;;;;;5048839;28;20094;-61
2022/12/31 13:27:54;;;;;;;4.85;1.98;;;20.30;64.10;;;;;;5049185;28;20073;-60
2022/12/31 13:30:37;;;;;;;5.22;1.75;;;20.30;64.10;;;;;;5049742;28;20112;-60